createdAt,value
2018-11-06T00:01:28.254Z,99607.15
2018-11-06T00:04:02.825Z,99598.95
2018-11-06T00:06:32.007Z,99596.44
2018-11-06T00:09:00.675Z,99596.28
2018-11-06T00:11:29.273Z,99583.52
2018-11-06T00:13:57.882Z,99585.37
2018-11-06T00:16:26.520Z,99583.32
2018-11-06T00:19:00.343Z,99577.31
2018-11-06T00:21:29.000Z,99573.25
2018-11-06T00:23:57.636Z,99576.71
2018-11-06T00:26:26.281Z,99570.36
2018-11-06T00:28:54.963Z,99566.13
2018-11-06T00:31:23.563Z,99556.06
2018-11-06T00:33:52.197Z,99558.28
2018-11-06T00:36:20.798Z,99554.03
2018-11-06T00:38:49.445Z,99547.84
2018-11-06T00:41:18.179Z,99549.59
2018-11-06T00:43:46.905Z,99546.17
2018-11-06T00:46:15.547Z,99548.52
2018-11-06T00:48:44.289Z,99537.84
2018-11-06T00:51:12.974Z,99530.88
2018-11-06T00:53:41.689Z,99527.94
2018-11-06T00:56:10.323Z,99531.25
2018-11-06T00:58:39.378Z,99519.70
2018-11-06T01:01:08.102Z,99522.67
2018-11-06T01:04:09.868Z,99529.35
2018-11-06T01:06:38.825Z,99524.60
2018-11-06T01:09:10.349Z,99513.56
2018-11-06T01:11:39.043Z,99515.50
2018-11-06T01:14:07.964Z,99508.62
2018-11-06T01:16:36.637Z,99518.05
2018-11-06T01:19:05.484Z,99510.63
2018-11-06T01:21:34.110Z,99505.84
2018-11-06T01:24:02.790Z,99509.27
2018-11-06T01:26:31.781Z,99510.00
2018-11-06T01:29:00.405Z,99507.38
2018-11-06T01:31:29.050Z,99516.67
2018-11-06T01:33:57.678Z,99509.89
2018-11-06T01:36:26.245Z,99517.48
2018-11-06T01:38:54.954Z,99505.99
2018-11-06T01:41:23.698Z,99507.43
2018-11-06T01:43:52.300Z,99511.22
2018-11-06T01:46:20.914Z,99507.81
2018-11-06T01:48:49.553Z,99501.52
2018-11-06T01:51:18.256Z,99497.73
2018-11-06T01:53:47.783Z,99499.92
2018-11-06T01:56:16.418Z,99503.00
2018-11-06T01:58:45.024Z,99506.00
2018-11-06T02:01:13.688Z,99495.70
2018-11-06T02:03:42.374Z,99508.88
2018-11-06T02:06:10.993Z,99500.89
2018-11-06T02:08:39.616Z,99502.59
2018-11-06T02:11:08.230Z,99502.73
2018-11-06T02:13:36.820Z,99496.39
2018-11-06T02:16:05.778Z,99490.27
2018-11-06T02:18:34.399Z,99485.58
2018-11-06T02:21:03.133Z,99480.06
2018-11-06T02:23:31.789Z,99480.40
2018-11-06T02:26:00.379Z,99472.83
2018-11-06T02:28:28.973Z,99463.59
2018-11-06T02:30:57.581Z,99463.73
2018-11-06T02:33:26.181Z,99458.94
2018-11-06T02:35:54.830Z,99462.89
2018-11-06T02:38:23.497Z,99459.44
2018-11-06T02:40:52.105Z,99463.38
2018-11-06T02:43:20.685Z,99464.43
2018-11-06T02:45:49.313Z,99459.73
2018-11-06T02:48:17.895Z,99456.80
2018-11-06T02:50:46.528Z,99447.20
2018-11-06T02:53:15.179Z,99447.20
2018-11-06T02:55:43.915Z,99447.14
2018-11-06T02:58:12.501Z,99434.88
2018-11-06T03:00:41.207Z,99431.09
2018-11-06T03:03:09.835Z,99431.20
2018-11-06T03:05:38.451Z,99423.03
2018-11-06T03:08:07.058Z,99419.67
2018-11-06T03:10:35.656Z,99422.23
2018-11-06T03:13:04.249Z,99434.27
2018-11-06T03:15:32.903Z,99430.48
2018-11-06T03:18:01.497Z,99441.05
2018-11-06T03:20:30.154Z,99454.73
2018-11-06T03:22:58.769Z,99462.84
2018-11-06T03:25:27.399Z,99468.84
2018-11-06T03:27:56.040Z,99472.59
2018-11-06T03:30:24.651Z,99477.80
2018-11-06T03:32:53.248Z,99476.95
2018-11-06T03:35:21.902Z,99476.19
2018-11-06T03:37:50.541Z,99480.41
2018-11-06T03:40:19.107Z,99483.49
2018-11-06T03:42:47.775Z,99477.08
2018-11-06T03:45:16.378Z,99471.50
2018-11-06T03:47:44.965Z,99478.80
2018-11-06T03:50:13.900Z,99484.13
2018-11-06T03:52:42.569Z,99487.20
2018-11-06T03:55:11.322Z,99488.18
2018-11-06T03:57:39.966Z,99492.36
2018-11-06T04:00:11.013Z,99494.06
2018-11-06T04:02:39.893Z,99495.89
2018-11-06T04:05:08.797Z,99494.22
2018-11-06T04:07:37.652Z,99493.88
2018-11-06T04:10:07.363Z,99498.52
2018-11-06T04:12:36.002Z,99499.38
2018-11-06T04:15:04.660Z,99494.64
2018-11-06T04:17:33.251Z,99487.91
2018-11-06T04:20:01.862Z,99494.72
2018-11-06T04:22:30.478Z,99492.66
2018-11-06T04:24:59.129Z,99507.61
2018-11-06T04:27:27.762Z,99507.27
2018-11-06T04:29:56.378Z,99505.22
2018-11-06T04:32:24.946Z,99515.02
2018-11-06T04:34:53.620Z,99517.58
2018-11-06T04:37:22.274Z,99521.72
2018-11-06T04:39:50.949Z,99523.50
2018-11-06T04:42:19.566Z,99533.06
2018-11-06T04:44:48.214Z,99538.32
2018-11-06T04:47:17.029Z,99541.87
2018-11-06T04:49:45.676Z,99544.45
2018-11-06T04:52:14.431Z,99547.90
2018-11-06T04:54:43.035Z,99555.13
2018-11-06T04:57:11.798Z,99547.05
2018-11-06T04:59:40.410Z,99548.45
2018-11-06T05:02:09.105Z,99551.53
2018-11-06T05:04:37.731Z,99556.14
2018-11-06T05:07:06.487Z,99551.92
2018-11-06T05:09:35.130Z,99554.87
2018-11-06T05:12:03.726Z,99559.09
2018-11-06T05:14:33.358Z,99550.16
2018-11-06T05:17:02.009Z,99552.73
2018-11-06T05:19:30.675Z,99555.39
2018-11-06T05:21:59.388Z,99552.05
2018-11-06T05:24:28.020Z,99553.69
2018-11-06T05:26:56.682Z,99550.73
2018-11-06T05:29:25.308Z,99546.52
2018-11-06T05:31:53.973Z,99546.59
2018-11-06T05:34:22.573Z,99549.45
2018-11-06T05:36:51.226Z,99543.14
2018-11-06T05:39:19.858Z,99548.76
2018-11-06T05:41:48.488Z,99543.95
2018-11-06T05:44:17.212Z,99542.19
2018-11-06T05:46:45.861Z,99544.32
2018-11-06T05:49:14.550Z,99539.64
2018-11-06T05:51:43.181Z,99543.92
2018-11-06T05:54:11.861Z,99546.05
2018-11-06T05:56:40.479Z,99550.73
2018-11-06T05:59:09.312Z,99555.02
2018-11-06T06:01:38.190Z,99558.40
2018-11-06T06:04:07.221Z,99560.04
2018-11-06T06:06:35.882Z,99563.48
2018-11-06T06:09:06.396Z,99568.52
2018-11-06T06:11:35.590Z,99562.38
2018-11-06T06:14:04.335Z,99563.62
2018-11-06T06:16:33.048Z,99569.22
2018-11-06T06:19:01.662Z,99563.16
2018-11-06T06:21:30.324Z,99570.79
2018-11-06T06:23:58.983Z,99571.15
2018-11-06T06:26:27.591Z,99577.83
2018-11-06T06:28:56.277Z,99585.06
2018-11-06T06:31:24.864Z,99586.70
2018-11-06T06:33:53.501Z,99584.96
2018-11-06T06:36:22.266Z,99591.28
2018-11-06T06:38:50.968Z,99592.48
2018-11-06T06:41:19.558Z,99595.44
2018-11-06T06:43:48.269Z,99585.91
2018-11-06T06:46:16.984Z,99590.52
2018-11-06T06:48:45.655Z,99588.72
2018-11-06T06:51:14.649Z,99591.67
2018-11-06T06:53:43.305Z,99588.44
2018-11-06T06:56:11.997Z,99581.11
2018-11-06T06:58:40.684Z,99579.34
2018-11-06T07:01:09.425Z,99573.58
2018-11-06T07:03:38.091Z,99583.64
2018-11-06T07:06:06.822Z,99587.09
2018-11-06T07:08:35.472Z,99591.03
2018-11-06T07:11:04.282Z,99590.03
2018-11-06T07:13:32.984Z,99586.52
2018-11-06T07:16:01.669Z,99598.75
2018-11-06T07:18:30.467Z,99591.98
2018-11-06T07:20:59.238Z,99587.49
2018-11-06T07:23:27.991Z,99583.43
2018-11-06T07:25:57.086Z,99576.74
2018-11-06T07:28:25.769Z,99596.19
2018-11-06T07:30:54.485Z,99593.79
2018-11-06T07:33:23.153Z,99588.20
2018-11-06T07:35:52.182Z,99595.17
2018-11-06T07:38:20.947Z,99596.02
2018-11-06T07:40:49.589Z,99593.80
2018-11-06T07:43:18.835Z,99593.86
2018-11-06T07:45:47.536Z,99592.20
2018-11-06T07:48:16.218Z,99590.27
2018-11-06T07:50:45.036Z,99587.97
2018-11-06T07:53:13.698Z,99590.78
2018-11-06T07:55:42.461Z,99584.64
2018-11-06T07:58:11.591Z,99587.09
2018-11-06T08:00:40.361Z,99577.11
2018-11-06T08:03:09.143Z,99584.92
2018-11-06T08:05:38.027Z,99581.57
2018-11-06T08:08:06.827Z,99578.80
2018-11-06T08:10:35.481Z,99582.45
2018-11-06T08:13:04.178Z,99580.66
2018-11-06T08:15:32.962Z,99579.05
2018-11-06T08:18:01.648Z,99575.80
2018-11-06T08:20:30.392Z,99581.15
2018-11-06T08:22:59.045Z,99581.51
2018-11-06T08:25:27.686Z,99582.66
2018-11-06T08:27:56.627Z,99587.58
2018-11-06T08:30:25.244Z,99587.91
2018-11-06T08:32:55.294Z,99590.81
2018-11-06T08:35:24.038Z,99590.92
2018-11-06T08:37:53.172Z,99593.54
2018-11-06T08:40:21.895Z,99592.41
2018-11-06T08:42:50.602Z,99589.70
2018-11-06T08:45:19.292Z,99587.63
2018-11-06T08:47:48.048Z,99589.77
2018-11-06T08:50:18.114Z,99589.03
2018-11-06T08:52:46.762Z,99600.91
2018-11-06T08:55:16.435Z,99590.13
2018-11-06T08:57:45.490Z,99592.36
2018-11-06T09:00:16.412Z,99588.54
2018-11-06T09:02:46.375Z,99592.02
2018-11-06T09:05:15.898Z,99584.05
2018-11-06T09:07:44.831Z,99587.50
2018-11-06T09:10:14.310Z,99585.77
2018-11-06T09:12:43.034Z,99578.02
2018-11-06T09:15:13.405Z,99582.48
2018-11-06T09:17:42.136Z,99587.03
2018-11-06T09:20:12.532Z,99583.76
2018-11-06T09:22:41.415Z,99581.53
2018-11-06T09:25:11.745Z,99576.89
2018-11-06T09:27:40.916Z,99571.70
2018-11-06T09:30:12.075Z,99578.89
2018-11-06T09:32:40.815Z,99576.48
2018-11-06T09:35:10.399Z,99585.65
2018-11-06T09:37:39.374Z,99581.19
2018-11-06T09:40:09.682Z,99567.05
2018-11-06T09:42:38.404Z,99561.81
2018-11-06T09:45:07.684Z,99566.67
2018-11-06T09:47:36.471Z,99553.70
2018-11-06T09:50:06.554Z,99550.38
2018-11-06T09:52:35.174Z,99560.83
2018-11-06T09:55:03.782Z,99556.83
2018-11-06T09:57:32.510Z,99549.38
2018-11-06T10:00:01.290Z,99549.39
2018-11-06T10:02:30.150Z,99541.05
2018-11-06T10:04:58.850Z,99540.06
2018-11-06T10:07:27.785Z,99541.66
2018-11-06T10:09:56.318Z,99546.84
2018-11-06T10:12:24.993Z,99546.23
2018-11-06T10:14:53.618Z,99530.13
2018-11-06T10:17:22.247Z,99528.46
2018-11-06T10:19:50.886Z,99517.47
2018-11-06T10:22:19.577Z,99518.89
2018-11-06T10:24:48.188Z,99523.18
2018-11-06T10:27:16.815Z,99520.64
2018-11-06T10:29:45.502Z,99505.52
2018-11-06T10:32:14.426Z,99509.62
2018-11-06T10:34:43.054Z,99511.73
2018-11-06T10:37:11.692Z,99504.17
2018-11-06T10:39:40.352Z,99505.69
2018-11-06T10:42:09.451Z,99504.07
2018-11-06T10:44:38.095Z,99492.51
2018-11-06T10:47:06.677Z,99490.45
2018-11-06T10:49:35.290Z,99485.84
2018-11-06T10:52:03.971Z,99483.73
2018-11-06T10:54:32.698Z,99480.45
2018-11-06T10:57:01.345Z,99481.73
2018-11-06T10:59:29.997Z,99473.41
2018-11-06T11:02:03.875Z,99479.49
2018-11-06T11:04:32.788Z,99471.27
2018-11-06T11:07:01.442Z,99479.25
2018-11-06T11:09:30.064Z,99467.05
2018-11-06T11:11:58.753Z,99473.79
2018-11-06T11:14:27.375Z,99479.26
2018-11-06T11:16:55.973Z,99471.19
2018-11-06T11:19:24.642Z,99465.17
2018-11-06T11:21:53.221Z,99469.17
2018-11-06T11:24:21.897Z,99460.66
2018-11-06T11:26:50.929Z,99469.13
2018-11-06T11:29:19.557Z,99456.67
2018-11-06T11:31:48.154Z,99465.07
2018-11-06T11:34:17.162Z,99460.31
2018-11-06T11:36:45.782Z,99458.25
2018-11-06T11:39:14.415Z,99454.91
2018-11-06T11:41:43.099Z,99460.95
2018-11-06T11:44:11.953Z,99459.55
2018-11-06T11:46:40.710Z,99458.17
2018-11-06T11:49:09.940Z,99458.09
2018-11-06T11:51:38.735Z,99463.18
2018-11-06T11:54:07.438Z,99451.56
2018-11-06T11:56:36.188Z,99450.75
2018-11-06T11:59:04.878Z,99444.66
2018-11-06T12:01:33.593Z,99446.87
2018-11-06T12:04:02.231Z,99441.00
2018-11-06T12:06:30.946Z,99438.30
2018-11-06T12:08:59.642Z,99444.01
2018-11-06T12:11:28.274Z,99437.00
2018-11-06T12:13:57.011Z,99440.56
2018-11-06T12:16:25.681Z,99433.67
2018-11-06T12:18:54.322Z,99432.25
2018-11-06T12:21:22.982Z,99438.69
2018-11-06T12:23:51.763Z,99430.30
2018-11-06T12:26:20.409Z,99424.43
2018-11-06T12:28:49.017Z,99423.53
2018-11-06T12:31:17.742Z,99427.20
2018-11-06T12:33:46.332Z,99428.48
2018-11-06T12:36:15.039Z,99426.55
2018-11-06T12:38:43.922Z,99422.03
2018-11-06T12:41:13.250Z,99422.88
2018-11-06T12:43:41.983Z,99424.30
2018-11-06T12:46:10.654Z,99417.77
2018-11-06T12:48:39.995Z,99415.77
2018-11-06T12:51:08.877Z,99404.88
2018-11-06T12:53:37.486Z,99407.37
2018-11-06T12:56:06.418Z,99400.79
2018-11-06T12:58:35.237Z,99408.85
2018-11-06T13:01:03.934Z,99390.94
2018-11-06T13:03:32.676Z,99404.84
2018-11-06T13:06:02.571Z,99395.78
2018-11-06T13:08:31.403Z,99398.69
2018-11-06T13:11:00.218Z,99399.92
2018-11-06T13:13:29.229Z,99396.00
2018-11-06T13:15:58.412Z,99402.22
2018-11-06T13:18:27.150Z,99399.85
2018-11-06T13:20:55.820Z,99395.47
2018-11-06T13:23:24.464Z,99392.25
2018-11-06T13:25:53.101Z,99397.15
2018-11-06T13:28:21.830Z,99404.77
2018-11-06T13:30:50.564Z,99397.98
2018-11-06T13:33:19.168Z,99398.82
2018-11-06T13:35:47.836Z,99399.52
2018-11-06T13:38:16.489Z,99397.78
2018-11-06T13:40:45.117Z,99396.77
2018-11-06T13:43:13.791Z,99401.43
2018-11-06T13:45:42.554Z,99401.13
2018-11-06T13:50:44.930Z,99398.55
2018-11-06T13:53:13.547Z,99405.29
2018-11-06T13:55:42.159Z,99412.44
2018-11-06T13:58:10.795Z,99397.69
2018-11-06T14:00:39.473Z,99406.14
2018-11-06T14:03:08.368Z,99408.10
2018-11-06T14:05:37.195Z,99402.72
2018-11-06T14:08:06.262Z,99397.41
2018-11-06T14:10:34.975Z,99395.03
2018-11-06T14:13:03.622Z,99390.25
2018-11-06T14:15:32.318Z,99396.16
2018-11-06T14:18:01.335Z,99388.52
2018-11-06T14:20:30.380Z,99386.71
2018-11-06T14:22:59.019Z,99389.78
2018-11-06T14:25:30.664Z,99388.38
2018-11-06T14:27:59.351Z,99391.02
2018-11-06T14:30:28.055Z,99381.64
2018-11-06T14:32:56.809Z,99384.45
2018-11-06T14:35:25.789Z,99388.02
2018-11-06T14:37:54.535Z,99380.24
2018-11-06T14:40:23.497Z,99382.43
2018-11-06T14:42:52.239Z,99380.89
2018-11-06T14:45:20.832Z,99382.63
2018-11-06T14:47:49.441Z,99379.73
2018-11-06T14:50:18.099Z,99376.06
2018-11-06T14:52:46.684Z,99375.73
2018-11-06T14:55:16.051Z,99381.18
2018-11-06T14:57:44.690Z,99380.58
2018-11-06T15:07:15.894Z,99368.98
2018-11-06T15:09:44.633Z,99370.52
2018-11-06T15:12:13.344Z,99370.34
2018-11-06T15:14:42.313Z,99379.26
2018-11-06T15:17:10.962Z,99373.05
2018-11-06T15:19:39.648Z,99368.90
2018-11-06T15:22:08.293Z,99368.05
2018-11-06T15:24:36.915Z,99366.09
2018-11-06T15:27:05.701Z,99369.43
2018-11-06T15:29:34.370Z,99376.25
2018-11-06T15:32:02.967Z,99359.13
2018-11-06T15:34:31.603Z,99368.37
2018-11-06T15:37:00.230Z,99365.50
2018-11-06T15:39:28.887Z,99374.58
2018-11-06T15:41:57.623Z,99376.58
2018-11-06T15:44:26.129Z,99375.83
2018-11-06T15:46:54.764Z,99373.56
2018-11-06T15:49:23.371Z,99379.12
2018-11-06T15:51:51.982Z,99375.57
2018-11-06T15:54:20.574Z,99374.45
2018-11-06T15:56:49.200Z,99378.63
2018-11-06T15:59:17.815Z,99368.09
2018-11-06T16:01:46.521Z,99371.75
2018-11-06T16:04:15.170Z,99372.45
2018-11-06T16:06:43.853Z,99372.11
2018-11-06T16:09:12.468Z,99367.84
2018-11-06T16:11:41.150Z,99365.27
2018-11-06T16:14:09.788Z,99369.25
2018-11-06T16:16:38.467Z,99372.67
2018-11-06T16:19:07.612Z,99374.39
2018-11-06T16:21:36.269Z,99374.73
2018-11-06T16:24:04.984Z,99374.23
2018-11-06T16:26:33.596Z,99381.67
2018-11-06T16:29:02.225Z,99371.08
2018-11-06T16:31:30.861Z,99380.84
2018-11-06T16:33:59.493Z,99381.41
2018-11-06T16:36:28.107Z,99376.32
2018-11-06T16:38:56.817Z,99380.37
2018-11-06T16:41:25.537Z,99381.21
2018-11-06T16:43:54.154Z,99384.19
2018-11-06T16:46:22.802Z,99390.72
2018-11-06T16:48:51.429Z,99382.59
2018-11-06T16:51:20.090Z,99391.66
2018-11-06T16:53:48.746Z,99382.94
2018-11-06T16:56:17.406Z,99386.70
2018-11-06T16:58:46.028Z,99390.81
2018-11-06T17:01:14.931Z,99391.25
2018-11-06T17:03:43.358Z,99386.70
2018-11-06T17:06:23.022Z,99385.50
2018-11-06T17:08:51.693Z,99393.59
2018-11-06T17:11:20.398Z,99391.55
2018-11-06T17:13:49.042Z,99389.83
2018-11-06T17:16:23.002Z,99388.35
2018-11-06T17:18:52.359Z,99387.94
2018-11-06T17:21:21.052Z,99390.34
2018-11-06T17:23:49.727Z,99387.39
2018-11-06T17:26:18.402Z,99382.78
2018-11-06T17:28:47.130Z,99377.11
2018-11-06T17:31:15.795Z,99376.30
2018-11-06T17:33:44.622Z,99379.05
2018-11-06T17:36:13.328Z,99370.28
2018-11-06T17:38:42.038Z,99369.90
2018-11-06T17:41:10.778Z,99372.70
2018-11-06T17:43:39.557Z,99373.26
2018-11-06T17:46:08.334Z,99380.00
2018-11-06T17:48:37.128Z,99375.30
2018-11-06T17:51:05.991Z,99380.49
2018-11-06T17:53:34.722Z,99378.12
2018-11-06T17:56:03.449Z,99373.39
2018-11-06T17:58:32.228Z,99370.06
2018-11-06T18:01:01.077Z,99377.47
2018-11-06T18:03:29.946Z,99370.72
2018-11-06T18:05:58.839Z,99367.11
2018-11-06T18:08:27.654Z,99373.07
2018-11-06T18:10:56.501Z,99377.00
2018-11-06T18:13:25.838Z,99367.38
2018-11-06T18:15:54.653Z,99373.45
2018-11-06T18:18:23.386Z,99373.37
2018-11-06T18:20:52.066Z,99369.11
2018-11-06T18:23:20.750Z,99376.80
2018-11-06T18:25:49.616Z,99387.27
2018-11-06T18:28:18.157Z,99373.61
2018-11-06T18:30:46.964Z,99374.05
2018-11-06T18:33:15.680Z,99376.16
2018-11-06T18:35:44.449Z,99385.85
2018-11-06T18:38:13.250Z,99381.31
2018-11-06T18:40:42.043Z,99396.95
2018-11-06T18:43:10.740Z,99382.45
2018-11-06T18:45:39.854Z,99386.95
2018-11-06T18:48:08.697Z,99386.88
2018-11-06T18:50:37.468Z,99385.59
2018-11-06T18:53:06.595Z,99392.88
2018-11-06T18:55:35.465Z,99392.16
2018-11-06T18:58:04.269Z,99396.19
2018-11-06T19:00:32.980Z,99406.02
2018-11-06T19:03:01.715Z,99402.80
2018-11-06T19:05:30.607Z,99400.66
2018-11-06T19:08:00.582Z,99403.87
2018-11-06T19:10:30.382Z,99406.53
2018-11-06T19:12:59.696Z,99397.27
2018-11-06T19:15:28.588Z,99395.31
2018-11-06T19:17:57.808Z,99387.20
2018-11-06T19:20:26.726Z,99386.28
2018-11-06T19:22:55.394Z,99378.59
2018-11-06T19:25:24.116Z,99384.44
2018-11-06T19:27:52.822Z,99384.28
2018-11-06T19:30:21.640Z,99381.95
2018-11-06T19:32:50.757Z,99382.41
2018-11-06T19:35:19.525Z,99386.70
2018-11-06T19:40:22.376Z,99401.52
2018-11-06T19:42:51.228Z,99405.17
2018-11-06T19:45:20.181Z,99395.47
2018-11-06T19:47:49.067Z,99409.02
2018-11-06T19:50:19.233Z,99417.39
2018-11-06T19:52:48.316Z,99406.52
2018-11-06T19:55:18.017Z,99411.77
2018-11-06T19:57:47.043Z,99412.71
2018-11-06T20:00:22.026Z,99418.76
2018-11-06T20:02:52.007Z,99415.26
2018-11-06T20:05:21.097Z,99407.88
2018-11-06T20:07:50.994Z,99408.50
2018-11-06T20:10:21.389Z,99409.91
2018-11-06T20:12:51.450Z,99402.66
2018-11-06T20:15:20.323Z,99404.97
2018-11-06T20:17:49.494Z,99402.04
2018-11-06T20:20:20.149Z,99403.06
2018-11-06T20:22:48.919Z,99404.91
2018-11-06T20:25:24.109Z,99402.83
2018-11-06T20:27:52.987Z,99407.14
2018-11-06T20:30:23.360Z,99416.07
2018-11-06T20:32:52.282Z,99408.64
2018-11-06T20:35:21.029Z,99412.17
2018-11-06T20:37:50.063Z,99396.25
2018-11-06T20:40:22.397Z,99409.66
2018-11-06T20:42:51.287Z,99412.19
2018-11-06T20:45:20.516Z,99409.66
2018-11-06T20:47:49.298Z,99413.94
2018-11-06T20:50:21.063Z,99408.22
2018-11-06T20:52:50.034Z,99409.91
2018-11-06T20:55:19.248Z,99411.38
2018-11-06T20:57:47.870Z,99398.13
2018-11-06T21:00:21.523Z,99409.17
2018-11-06T21:02:51.140Z,99410.89
2018-11-06T21:05:19.929Z,99412.63
2018-11-06T21:07:48.958Z,99407.22
2018-11-06T21:10:19.160Z,99397.05
2018-11-06T21:12:48.152Z,99405.59
2018-11-06T21:15:17.017Z,99413.95
2018-11-06T21:17:45.886Z,99406.77
2018-11-06T21:20:15.313Z,99409.73
2018-11-06T21:22:44.036Z,99413.28
2018-11-06T21:25:13.162Z,99412.73
2018-11-06T21:27:42.610Z,99418.77
2018-11-06T21:30:15.976Z,99414.20
2018-11-06T21:32:46.108Z,99418.60
2018-11-06T21:35:14.963Z,99418.70
2018-11-06T21:37:43.808Z,99417.07
2018-11-06T21:40:15.408Z,99410.84
2018-11-06T21:42:44.654Z,99410.91
2018-11-06T21:45:14.029Z,99409.20
2018-11-06T21:47:43.533Z,99410.90
2018-11-06T21:50:13.158Z,99402.30
2018-11-06T21:52:41.942Z,99404.19
2018-11-06T21:55:11.862Z,99393.94
2018-11-06T21:57:40.544Z,99390.64
2018-11-06T22:00:13.285Z,99392.35
2018-11-06T22:02:41.922Z,99396.63
2018-11-06T22:05:13.522Z,99391.39
2018-11-06T22:07:42.408Z,99398.89
2018-11-06T22:10:12.459Z,99398.95
2018-11-06T22:12:41.869Z,99395.77
2018-11-06T22:15:11.610Z,99401.44
2018-11-06T22:17:40.721Z,99402.16
2018-11-06T22:20:11.062Z,99401.97
2018-11-06T22:22:39.749Z,99394.72
2018-11-06T22:25:08.574Z,99394.55
2018-11-06T22:27:37.529Z,99399.34
2018-11-06T22:30:08.214Z,99390.83
2018-11-06T22:32:37.288Z,99393.98
2018-11-06T22:35:07.556Z,99397.34
2018-11-06T22:37:36.188Z,99398.52
2018-11-06T22:40:04.998Z,99391.78
2018-11-06T22:42:33.575Z,99403.42
2018-11-06T22:45:02.226Z,99408.96
2018-11-06T22:47:30.808Z,99398.30
2018-11-06T22:49:59.461Z,99403.31
2018-11-06T22:52:28.105Z,99408.92
2018-11-06T22:54:56.756Z,99408.23
2018-11-06T22:57:25.542Z,99402.16
2018-11-06T22:59:54.204Z,99405.30
2018-11-06T23:02:22.814Z,99410.09
2018-11-06T23:04:57.216Z,99417.95
2018-11-06T23:07:31.025Z,99412.13
2018-11-06T23:09:59.655Z,99411.70
2018-11-06T23:12:28.265Z,99405.78
2018-11-06T23:14:56.907Z,99404.23
2018-11-06T23:17:25.562Z,99406.05
2018-11-06T23:19:54.170Z,99406.95
2018-11-06T23:22:22.842Z,99404.61
2018-11-06T23:24:51.534Z,99400.48
2018-11-06T23:27:20.127Z,99408.27
2018-11-06T23:29:48.769Z,99408.63
2018-11-06T23:32:17.414Z,99414.17
2018-11-06T23:34:46.025Z,99415.08
2018-11-06T23:37:14.612Z,99415.28
2018-11-06T23:39:43.234Z,99419.61
2018-11-06T23:42:11.877Z,99418.85
2018-11-06T23:44:40.496Z,99412.07
2018-11-06T23:47:09.104Z,99414.77
2018-11-06T23:49:37.752Z,99421.71
2018-11-06T23:52:06.365Z,99416.66
2018-11-06T23:54:34.986Z,99415.92
2018-11-06T23:57:03.592Z,99410.38
2018-11-06T23:59:32.245Z,99416.86
